createdAt,value
2023-12-09T00:02:02.784Z,9.70
2023-12-09T00:04:31.086Z,11.82
2023-12-09T00:07:01.249Z,12.80
2023-12-09T00:09:31.026Z,11.95
2023-12-09T00:12:00.982Z,11.63
2023-12-09T00:14:30.716Z,9.90
2023-12-09T00:17:01.583Z,11.55
2023-12-09T00:19:33.854Z,9.35
2023-12-09T00:22:07.043Z,11.27
2023-12-09T00:24:39.089Z,13.48
2023-12-09T00:27:10.793Z,8.98
2023-12-09T00:29:42.788Z,9.88
2023-12-09T00:32:14.882Z,9.30
2023-12-09T00:34:47.000Z,11.00
2023-12-09T00:37:20.649Z,9.07
2023-12-09T00:39:51.699Z,8.85
2023-12-09T00:42:23.566Z,8.25
2023-12-09T00:44:55.512Z,14.93
2023-12-09T00:47:26.088Z,6.93
2023-12-09T00:49:57.000Z,8.90
2023-12-09T00:52:30.399Z,13.52
2023-12-09T00:55:03.466Z,11.43
2023-12-09T00:57:34.852Z,7.55
2023-12-09T01:00:06.784Z,8.23
2023-12-09T01:02:40.914Z,8.45
2023-12-09T01:05:12.937Z,11.88
2023-12-09T01:07:45.965Z,10.23
2023-12-09T01:10:18.671Z,10.98
2023-12-09T01:12:50.287Z,9.35
2023-12-09T01:15:21.647Z,5.90
2023-12-09T01:17:53.388Z,13.38
2023-12-09T01:20:26.160Z,11.43
2023-12-09T01:22:58.704Z,10.07
2023-12-09T01:25:30.992Z,9.65
2023-12-09T01:28:02.469Z,8.10
2023-12-09T01:30:34.585Z,8.95
2023-12-09T01:33:06.540Z,7.60
2023-12-09T01:35:38.035Z,10.80
2023-12-09T01:38:11.125Z,14.25
2023-12-09T01:40:42.786Z,6.55
2023-12-09T01:43:15.462Z,8.75
2023-12-09T01:45:45.777Z,6.63
2023-12-09T01:48:18.293Z,8.13
2023-12-09T01:50:50.229Z,8.68
2023-12-09T01:53:23.186Z,8.75
2023-12-09T01:55:54.170Z,9.70
2023-12-09T01:58:24.970Z,11.38
2023-12-09T02:00:57.485Z,15.48
2023-12-09T02:03:29.593Z,9.00
2023-12-09T02:06:01.725Z,12.15
2023-12-09T02:08:35.103Z,9.13
2023-12-09T02:11:15.630Z,10.85
2023-12-09T02:13:56.515Z,12.95
2023-12-09T02:16:33.883Z,10.13
2023-12-09T02:19:07.717Z,8.63
2023-12-09T02:21:59.488Z,10.07
2023-12-09T02:24:32.542Z,12.13
2023-12-09T02:27:15.890Z,10.18
2023-12-09T02:29:56.920Z,9.10
2023-12-09T02:32:32.805Z,5.43
2023-12-09T02:35:07.381Z,5.82
2023-12-09T02:37:41.331Z,5.82
2023-12-09T02:40:15.702Z,6.35
2023-12-09T02:42:47.847Z,8.05
2023-12-09T02:45:22.050Z,12.68
2023-12-09T02:47:52.984Z,12.73
2023-12-09T02:50:25.716Z,12.40
2023-12-09T02:52:56.774Z,10.07
2023-12-09T02:55:29.801Z,6.63
2023-12-09T02:58:01.312Z,8.07
2023-12-09T03:00:32.906Z,6.35
2023-12-09T03:03:04.728Z,5.93
2023-12-09T03:05:36.894Z,6.45
2023-12-09T03:08:09.308Z,12.63
2023-12-09T03:10:42.042Z,7.32
2023-12-09T03:13:13.565Z,6.78
2023-12-09T03:15:46.042Z,6.95
2023-12-09T03:18:18.600Z,6.35
2023-12-09T03:20:49.978Z,4.80
2023-12-09T03:23:22.069Z,5.93
2023-12-09T03:25:55.338Z,5.10
2023-12-09T03:28:27.588Z,9.02
2023-12-09T03:30:58.997Z,8.88
2023-12-09T03:33:30.607Z,9.98
2023-12-09T03:36:02.541Z,10.10
2023-12-09T03:38:33.985Z,7.80
2023-12-09T03:41:08.330Z,8.80
2023-12-09T03:43:41.589Z,9.13
2023-12-09T03:46:15.732Z,15.18
2023-12-09T03:48:47.944Z,8.50
2023-12-09T03:51:19.759Z,14.20
2023-12-09T03:53:51.953Z,10.05
2023-12-09T03:56:25.138Z,6.38
2023-12-09T03:58:56.666Z,7.15
2023-12-09T04:01:28.874Z,11.35
2023-12-09T04:04:00.994Z,9.52
2023-12-09T04:06:34.322Z,5.63
2023-12-09T04:09:05.509Z,9.60
2023-12-09T04:11:39.218Z,8.27
2023-12-09T04:14:10.344Z,7.25
2023-12-09T04:16:41.662Z,20.42
2023-12-09T04:19:14.128Z,8.10
2023-12-09T04:21:45.884Z,9.80
2023-12-09T04:24:18.012Z,9.02
2023-12-09T04:26:51.382Z,8.00
2023-12-09T04:29:22.168Z,11.98
2023-12-09T04:31:53.207Z,8.48
2023-12-09T04:34:25.278Z,10.07
2023-12-09T04:36:58.089Z,9.52
2023-12-09T04:39:29.669Z,8.68
2023-12-09T04:42:02.383Z,11.00
2023-12-09T04:44:33.331Z,11.95
2023-12-09T04:47:08.022Z,8.32
2023-12-09T04:49:39.431Z,11.40
2023-12-09T04:52:11.126Z,10.73
2023-12-09T04:54:40.579Z,7.13
2023-12-09T04:57:12.813Z,8.75
2023-12-09T04:59:43.969Z,17.20
2023-12-09T05:02:15.422Z,8.88
2023-12-09T05:04:46.817Z,8.55
2023-12-09T05:07:17.855Z,8.77
2023-12-09T05:09:49.576Z,9.10
2023-12-09T05:12:22.456Z,10.40
2023-12-09T05:14:51.933Z,12.57
2023-12-09T05:17:20.247Z,12.60
2023-12-09T05:19:48.693Z,11.43
2023-12-09T05:22:17.275Z,12.30
2023-12-09T05:24:45.714Z,11.38
2023-12-09T05:27:14.010Z,10.15
2023-12-09T05:29:44.698Z,10.32
2023-12-09T05:32:13.170Z,9.15
2023-12-09T05:34:41.378Z,10.05
2023-12-09T05:37:09.603Z,9.43
2023-12-09T05:39:37.975Z,8.93
2023-12-09T05:42:07.035Z,11.23
2023-12-09T05:44:35.265Z,11.40
2023-12-09T05:47:05.033Z,10.60
2023-12-09T05:49:33.361Z,12.40
2023-12-09T05:52:01.477Z,9.68
2023-12-09T05:54:32.762Z,6.22
2023-12-09T05:57:02.713Z,7.28
2023-12-09T05:59:33.291Z,11.85
2023-12-09T06:02:06.309Z,9.02
2023-12-09T06:04:36.518Z,7.13
2023-12-09T06:07:07.731Z,8.25
2023-12-09T06:09:39.433Z,6.38
2023-12-09T06:12:10.780Z,9.20
2023-12-09T06:14:40.869Z,12.30
2023-12-09T06:17:13.244Z,9.05
2023-12-09T06:19:45.476Z,11.43
2023-12-09T06:22:15.253Z,13.52
2023-12-09T06:24:45.800Z,8.80
2023-12-09T06:27:15.769Z,14.80
2023-12-09T06:29:48.175Z,7.72
2023-12-09T06:32:20.127Z,13.90
2023-12-09T06:34:50.185Z,13.68
2023-12-09T06:37:21.234Z,10.77
2023-12-09T06:39:51.598Z,10.05
2023-12-09T06:42:21.138Z,7.30
2023-12-09T06:44:51.740Z,6.72
2023-12-09T06:47:25.518Z,9.48
2023-12-09T06:49:55.631Z,10.15
2023-12-09T06:52:24.575Z,6.38
2023-12-09T06:54:53.036Z,6.55
2023-12-09T06:57:21.205Z,7.53
2023-12-09T06:59:49.441Z,8.45
2023-12-09T07:02:17.768Z,11.95
2023-12-09T07:04:47.326Z,10.95
2023-12-09T07:07:21.490Z,6.93
2023-12-09T07:09:50.698Z,9.35
2023-12-09T07:12:19.011Z,6.63
2023-12-09T07:14:47.052Z,7.20
2023-12-09T07:17:15.289Z,7.43
2023-12-09T07:19:43.629Z,10.18
2023-12-09T07:22:13.832Z,7.80
2023-12-09T07:24:42.703Z,12.90
2023-12-09T07:27:11.239Z,8.25
2023-12-09T07:29:40.027Z,8.00
2023-12-09T07:32:12.656Z,7.57
2023-12-09T07:34:44.726Z,7.28
2023-12-09T07:37:16.204Z,13.73
2023-12-09T07:39:48.120Z,7.15
2023-12-09T07:42:16.911Z,6.93
2023-12-09T07:44:45.555Z,11.93
2023-12-09T07:47:15.071Z,10.23
2023-12-09T07:49:44.323Z,16.50
2023-12-09T07:52:16.438Z,7.10
2023-12-09T07:54:44.891Z,11.05
2023-12-09T07:57:15.166Z,7.38
2023-12-09T07:59:43.894Z,6.70
2023-12-09T08:02:12.231Z,6.00
2023-12-09T08:04:40.907Z,5.90
2023-12-09T08:07:09.699Z,6.55
2023-12-09T08:09:39.842Z,12.07
2023-12-09T08:12:09.336Z,9.02
2023-12-09T08:14:38.270Z,7.35
2023-12-09T08:17:06.747Z,7.90
2023-12-09T08:19:35.626Z,7.80
2023-12-09T08:22:04.315Z,6.53
2023-12-09T08:24:32.898Z,8.40
2023-12-09T08:27:07.617Z,6.00
2023-12-09T08:29:36.587Z,5.97
2023-12-09T08:32:05.377Z,5.00
2023-12-09T08:34:36.689Z,6.35
2023-12-09T08:37:05.191Z,5.93
2023-12-09T08:39:33.210Z,8.77
2023-12-09T08:42:02.636Z,8.48
2023-12-09T08:44:30.805Z,6.35
2023-12-09T08:47:00.709Z,6.63
2023-12-09T08:49:29.876Z,8.13
2023-12-09T08:51:59.844Z,4.93
2023-12-09T08:54:27.799Z,5.85
2023-12-09T08:56:56.282Z,5.75
2023-12-09T08:59:26.346Z,5.28
2023-12-09T09:01:54.691Z,6.68
2023-12-09T09:04:23.725Z,4.88
2023-12-09T09:06:52.204Z,6.72
2023-12-09T09:09:20.243Z,4.70
2023-12-09T09:11:48.490Z,7.38
2023-12-09T09:14:16.801Z,5.22
2023-12-09T09:16:46.116Z,3.65
2023-12-09T09:19:14.727Z,4.07
2023-12-09T09:21:43.166Z,6.05
2023-12-09T09:24:11.293Z,7.50
2023-12-09T09:26:39.610Z,7.20
2023-12-09T09:29:07.785Z,5.53
2023-12-09T09:31:35.730Z,7.00
2023-12-09T09:34:05.700Z,10.45
2023-12-09T09:36:34.080Z,5.18
2023-12-09T09:39:02.274Z,4.57
2023-12-09T09:41:34.865Z,5.65
2023-12-09T09:44:09.557Z,6.85
2023-12-09T09:46:40.823Z,8.77
2023-12-09T09:49:11.703Z,6.68
2023-12-09T09:51:44.696Z,7.70
2023-12-09T09:54:21.895Z,6.70
2023-12-09T09:56:51.006Z,6.18
2023-12-09T09:59:20.176Z,8.02
2023-12-09T10:01:48.685Z,7.10
2023-12-09T10:04:18.197Z,6.15
2023-12-09T10:06:47.165Z,5.70
2023-12-09T10:09:15.466Z,4.80
2023-12-09T10:11:43.516Z,5.25
2023-12-09T10:14:11.607Z,7.20
2023-12-09T10:16:40.842Z,6.43
2023-12-09T10:19:10.249Z,5.55
2023-12-09T10:21:40.722Z,5.75
2023-12-09T10:24:09.389Z,5.70
2023-12-09T10:26:37.671Z,4.97
2023-12-09T10:29:05.904Z,4.25
2023-12-09T10:31:36.755Z,7.70
2023-12-09T10:34:06.036Z,5.97
2023-12-09T10:36:34.486Z,6.05
2023-12-09T10:39:06.575Z,8.88
2023-12-09T10:41:34.750Z,6.25
2023-12-09T10:44:03.613Z,5.80
2023-12-09T10:46:31.661Z,5.93
2023-12-09T10:48:59.947Z,8.32
2023-12-09T10:51:28.702Z,7.85
2023-12-09T10:53:57.020Z,5.90
2023-12-09T10:56:26.415Z,7.25
2023-12-09T10:58:55.575Z,7.43
2023-12-09T11:01:24.810Z,6.10
2023-12-09T11:03:53.725Z,6.30
2023-12-09T11:06:23.556Z,6.28
2023-12-09T11:08:52.405Z,10.90
2023-12-09T11:11:21.402Z,8.20
2023-12-09T11:13:50.877Z,6.35
2023-12-09T11:16:22.586Z,8.18
2023-12-09T11:18:52.918Z,5.03
2023-12-09T11:21:21.678Z,7.53
2023-12-09T11:23:51.576Z,5.45
2023-12-09T11:26:20.724Z,7.43
2023-12-09T11:29:06.671Z,9.77
2023-12-09T11:31:39.898Z,5.85
2023-12-09T11:34:09.430Z,6.60
2023-12-09T11:36:39.833Z,7.65
2023-12-09T11:39:11.243Z,9.02
2023-12-09T11:41:40.178Z,13.90
2023-12-09T11:44:10.593Z,6.80
2023-12-09T11:46:39.357Z,8.85
2023-12-09T11:49:08.646Z,10.05
2023-12-09T11:51:38.210Z,7.80
2023-12-09T11:54:08.606Z,7.93
2023-12-09T11:56:39.047Z,9.75
2023-12-09T11:59:07.456Z,8.25
2023-12-09T12:01:38.355Z,7.18
2023-12-09T12:04:06.963Z,9.10
2023-12-09T12:06:35.427Z,9.98
2023-12-09T12:09:05.129Z,11.32
2023-12-09T12:11:40.576Z,7.70
2023-12-09T12:14:12.675Z,7.57
2023-12-09T12:16:46.201Z,6.47
2023-12-09T12:19:16.768Z,7.70
2023-12-09T12:21:59.140Z,8.75
2023-12-09T12:24:31.228Z,6.63
2023-12-09T12:27:00.880Z,9.43
2023-12-09T12:29:30.961Z,6.25
2023-12-09T12:32:01.635Z,4.90
2023-12-09T12:34:34.074Z,8.88
2023-12-09T12:37:11.168Z,7.20
2023-12-09T12:39:48.465Z,10.05
2023-12-09T12:42:28.279Z,7.97
2023-12-09T12:45:06.556Z,5.90
2023-12-09T12:47:46.754Z,7.97
2023-12-09T12:50:24.245Z,8.00
2023-12-09T12:53:03.110Z,9.18
2023-12-09T12:55:37.409Z,5.20
2023-12-09T12:58:15.474Z,7.82
2023-12-09T13:00:57.981Z,8.75
2023-12-09T13:03:39.602Z,8.23
2023-12-09T13:06:12.683Z,9.00
2023-12-09T13:08:56.340Z,11.73
2023-12-09T13:11:28.412Z,7.15
2023-12-09T13:14:07.831Z,8.30
2023-12-09T13:16:41.270Z,7.97
2023-12-09T13:19:14.169Z,9.95
2023-12-09T13:21:45.124Z,5.97
2023-12-09T13:24:15.644Z,11.73
2023-12-09T13:26:44.818Z,6.70
2023-12-09T13:29:16.662Z,8.80
2023-12-09T13:31:47.076Z,8.40
2023-12-09T13:34:21.454Z,12.02
2023-12-09T13:36:53.394Z,9.65
2023-12-09T13:39:27.659Z,7.28
2023-12-09T13:41:59.045Z,11.98
2023-12-09T13:44:33.346Z,6.90
2023-12-09T13:47:04.583Z,9.05
2023-12-09T13:49:37.652Z,6.22
2023-12-09T13:52:10.506Z,8.38
2023-12-09T13:54:48.156Z,7.45
2023-12-09T13:57:24.358Z,7.28
2023-12-09T13:59:56.727Z,10.45
2023-12-09T14:02:27.891Z,6.53
2023-12-09T14:04:57.868Z,8.07
2023-12-09T14:07:26.174Z,9.48
2023-12-09T14:09:54.527Z,7.95
2023-12-09T14:12:23.372Z,10.50
2023-12-09T14:14:51.735Z,9.80
2023-12-09T14:17:20.216Z,9.45
2023-12-09T14:19:48.989Z,9.20
2023-12-09T14:22:18.869Z,7.95
2023-12-09T14:24:47.064Z,11.55
2023-12-09T14:27:15.451Z,9.38
2023-12-09T14:29:44.040Z,11.35
2023-12-09T14:32:12.187Z,9.68
2023-12-09T14:34:40.832Z,10.63
2023-12-09T14:37:09.864Z,15.63
2023-12-09T14:39:39.930Z,12.00
2023-12-09T14:42:08.436Z,11.43
2023-12-09T14:44:36.771Z,13.32
2023-12-09T14:47:05.349Z,11.63
2023-12-09T14:49:33.729Z,13.57
2023-12-09T14:52:02.372Z,12.85
2023-12-09T14:54:31.085Z,11.85
2023-12-09T14:57:02.145Z,11.10
2023-12-09T14:59:30.652Z,14.57
2023-12-09T15:01:59.586Z,9.90
2023-12-09T15:04:28.465Z,9.45
2023-12-09T15:06:56.786Z,11.45
2023-12-09T15:09:27.041Z,9.30
2023-12-09T15:11:55.259Z,12.13
2023-12-09T15:14:25.180Z,10.90
2023-12-09T15:16:53.627Z,11.65
2023-12-09T15:19:22.041Z,10.75
2023-12-09T15:21:50.500Z,8.90
2023-12-09T15:24:18.944Z,7.78
2023-12-09T15:26:47.266Z,7.63
2023-12-09T15:29:15.456Z,6.75
2023-12-09T15:31:45.979Z,7.63
2023-12-09T15:34:14.325Z,7.63
2023-12-09T15:36:42.908Z,8.68
2023-12-09T15:39:11.336Z,6.70
2023-12-09T15:41:39.888Z,9.52
2023-12-09T15:44:08.587Z,7.93
2023-12-09T15:46:37.904Z,9.15
2023-12-09T15:49:09.926Z,7.95
2023-12-09T15:51:39.053Z,9.93
2023-12-09T15:54:09.084Z,7.82
2023-12-09T15:56:37.546Z,8.73
2023-12-09T15:59:05.765Z,9.38
2023-12-09T16:01:34.209Z,10.27
2023-12-09T16:04:02.616Z,9.98
2023-12-09T16:06:32.405Z,9.88
2023-12-09T16:09:00.860Z,14.70
2023-12-09T16:11:29.196Z,10.45
2023-12-09T16:13:57.561Z,9.25
2023-12-09T16:16:26.426Z,9.00
2023-12-09T16:18:55.178Z,6.75
2023-12-09T16:21:24.397Z,8.13
2023-12-09T16:23:54.175Z,7.25
2023-12-09T16:26:22.686Z,8.85
2023-12-09T16:28:51.325Z,7.32
2023-12-09T16:31:19.903Z,7.45
2023-12-09T16:33:48.711Z,13.00
2023-12-09T16:36:17.901Z,7.68
2023-12-09T16:38:46.237Z,7.70
2023-12-09T16:41:16.141Z,6.88
2023-12-09T16:43:44.478Z,8.25
2023-12-09T16:46:12.879Z,5.60
2023-12-09T16:48:41.578Z,5.53
2023-12-09T16:51:10.339Z,7.97
2023-12-09T16:53:38.841Z,5.43
2023-12-09T16:56:08.347Z,4.68
2023-12-09T16:58:38.036Z,5.65
2023-12-09T17:01:07.577Z,5.20
2023-12-09T17:03:36.038Z,4.82
2023-12-09T17:06:04.709Z,5.53
2023-12-09T17:08:35.502Z,3.40
2023-12-09T17:11:03.746Z,7.32
2023-12-09T17:13:32.053Z,4.30
2023-12-09T17:16:01.736Z,3.78
2023-12-09T17:18:30.915Z,3.40
2023-12-09T17:20:59.713Z,3.90
2023-12-09T17:23:28.803Z,3.03
2023-12-09T17:25:57.214Z,2.60
2023-12-09T17:28:25.701Z,3.03
2023-12-09T17:30:54.345Z,2.97
2023-12-09T17:33:24.447Z,8.98
2023-12-09T17:35:52.800Z,4.40
2023-12-09T17:38:21.341Z,3.10
2023-12-09T17:40:49.654Z,2.85
2023-12-09T17:43:19.281Z,2.45
2023-12-09T17:45:47.817Z,3.88
2023-12-09T17:48:16.657Z,2.80
2023-12-09T17:50:46.520Z,2.30
2023-12-09T17:53:18.486Z,3.33
2023-12-09T17:55:47.006Z,2.55
2023-12-09T17:58:15.364Z,2.70
2023-12-09T18:00:44.151Z,2.55
2023-12-09T18:03:12.914Z,2.42
2023-12-09T18:05:41.200Z,4.13
2023-12-09T18:08:11.224Z,2.40
2023-12-09T18:10:39.422Z,2.35
2023-12-09T18:13:07.681Z,2.65
2023-12-09T18:15:36.639Z,2.75
2023-12-09T18:18:05.094Z,2.15
2023-12-09T18:20:33.805Z,2.55
2023-12-09T18:23:02.198Z,4.20
2023-12-09T18:25:31.895Z,4.80
2023-12-09T18:28:00.238Z,2.90
2023-12-09T18:30:28.514Z,3.60
2023-12-09T18:32:57.287Z,6.18
2023-12-09T18:35:25.736Z,3.28
2023-12-09T18:37:53.953Z,3.55
2023-12-09T18:40:24.098Z,3.42
2023-12-09T18:42:53.990Z,3.70
2023-12-09T18:45:22.230Z,3.97
2023-12-09T18:47:51.503Z,3.00
2023-12-09T18:50:20.035Z,3.40
2023-12-09T18:52:48.246Z,2.85
2023-12-09T18:55:16.746Z,3.30
2023-12-09T18:57:49.638Z,3.33
2023-12-09T19:00:21.572Z,3.10
2023-12-09T19:02:53.151Z,3.20
2023-12-09T19:05:31.417Z,3.95
2023-12-09T19:08:09.271Z,3.58
2023-12-09T19:10:41.995Z,2.42
2023-12-09T19:13:11.249Z,3.28
2023-12-09T19:15:42.461Z,2.50
2023-12-09T19:18:12.882Z,2.60
2023-12-09T19:20:45.018Z,1.95
2023-12-09T19:23:15.699Z,4.72
2023-12-09T19:25:48.029Z,3.60
2023-12-09T19:28:16.579Z,2.03
2023-12-09T19:30:46.617Z,1.73
2023-12-09T19:33:15.205Z,2.50
2023-12-09T19:35:43.724Z,3.75
2023-12-09T19:38:12.041Z,2.10
2023-12-09T19:40:40.369Z,2.70
2023-12-09T19:43:08.791Z,2.00
2023-12-09T19:45:37.361Z,3.15
2023-12-09T19:48:08.149Z,2.40
2023-12-09T19:50:36.797Z,3.25
2023-12-09T19:53:05.350Z,2.33
2023-12-09T19:55:33.752Z,2.35
2023-12-09T19:58:05.435Z,2.10
2023-12-09T20:00:35.224Z,2.60
2023-12-09T20:03:06.624Z,2.70
2023-12-09T20:05:39.428Z,4.05
2023-12-09T20:08:10.232Z,3.50
2023-12-09T20:10:42.113Z,1.92
2023-12-09T20:13:11.025Z,3.42
2023-12-09T20:15:40.093Z,2.22
2023-12-09T20:18:13.029Z,2.00
2023-12-09T20:20:46.037Z,3.45
2023-12-09T20:23:18.335Z,1.23
2023-12-09T20:25:49.498Z,1.13
2023-12-09T20:28:22.106Z,1.15
2023-12-09T20:30:55.515Z,0.95
2023-12-09T20:33:29.868Z,1.50
2023-12-09T20:36:07.226Z,1.20
2023-12-09T20:38:38.859Z,1.02
2023-12-09T20:41:14.211Z,1.00
2023-12-09T20:43:52.784Z,2.25
2023-12-09T20:46:24.150Z,0.80
2023-12-09T20:48:57.833Z,0.60
2023-12-09T20:54:32.247Z,0.68
2023-12-09T21:00:13.716Z,0.57
2023-12-09T21:02:46.646Z,0.52
2023-12-09T21:05:16.814Z,0.52
2023-12-09T21:07:52.280Z,1.15
2023-12-09T21:10:26.246Z,0.60
2023-12-09T21:13:00.908Z,1.25
2023-12-09T21:15:33.844Z,0.70
2023-12-09T21:18:10.438Z,0.80
2023-12-09T21:20:43.812Z,1.02
2023-12-09T21:23:20.985Z,0.68
2023-12-09T21:25:51.842Z,0.60
2023-12-09T21:28:26.255Z,0.70
2023-12-09T21:30:58.220Z,0.55
2023-12-09T21:33:31.741Z,0.70
2023-12-09T21:36:07.762Z,0.73
2023-12-09T21:38:40.738Z,0.80
2023-12-09T21:41:09.787Z,1.00
2023-12-09T21:43:38.418Z,1.27
2023-12-09T21:46:07.433Z,0.90
2023-12-09T21:48:35.797Z,0.75
2023-12-09T21:51:06.344Z,1.30
2023-12-09T21:53:34.981Z,2.88
2023-12-09T21:56:04.680Z,2.40
2023-12-09T21:58:33.057Z,1.10
2023-12-09T22:01:01.360Z,8.07
2023-12-09T22:03:29.825Z,1.52
2023-12-09T22:05:58.273Z,1.88
2023-12-09T22:08:26.543Z,1.20
2023-12-09T22:10:54.767Z,1.05
2023-12-09T22:13:24.516Z,3.35
2023-12-09T22:15:52.746Z,1.98
2023-12-09T22:18:21.148Z,3.58
2023-12-09T22:20:49.427Z,2.55
2023-12-09T22:23:17.757Z,4.35
2023-12-09T22:25:45.997Z,0.80
2023-12-09T22:28:14.460Z,1.77
2023-12-09T22:30:44.064Z,1.67
2023-12-09T22:33:12.437Z,0.65
2023-12-09T22:35:40.663Z,1.33
2023-12-09T22:38:08.958Z,2.85
2023-12-09T22:40:37.501Z,2.78
2023-12-09T22:43:05.883Z,3.95
2023-12-09T22:45:34.181Z,6.40
2023-12-09T22:48:03.955Z,7.78
2023-12-09T22:50:32.262Z,11.55
2023-12-09T22:53:00.608Z,5.03
2023-12-09T22:55:29.206Z,4.63
2023-12-09T22:57:57.932Z,6.25
2023-12-09T23:00:33.507Z,8.88
2023-12-09T23:03:04.118Z,8.35
2023-12-09T23:05:32.500Z,9.00
2023-12-09T23:08:00.782Z,6.68
2023-12-09T23:10:29.220Z,9.30
2023-12-09T23:12:57.482Z,11.98
2023-12-09T23:15:25.759Z,11.00
2023-12-09T23:17:55.123Z,8.10
2023-12-09T23:20:24.614Z,13.48
2023-12-09T23:22:52.736Z,5.60
2023-12-09T23:25:20.780Z,8.63
2023-12-09T23:27:49.083Z,6.75
2023-12-09T23:30:17.855Z,5.68
2023-12-09T23:32:45.991Z,8.98
2023-12-09T23:35:14.725Z,11.40
2023-12-09T23:37:44.261Z,8.60
2023-12-09T23:40:13.853Z,10.25
2023-12-09T23:42:42.013Z,8.25
2023-12-09T23:45:11.377Z,15.13
2023-12-09T23:47:40.364Z,8.27
2023-12-09T23:50:09.192Z,6.38
2023-12-09T23:52:37.815Z,10.15
2023-12-09T23:55:08.103Z,9.70
2023-12-09T23:57:36.841Z,10.32
